Piedra, California
Current Conditions -  °F | °C
As of 10:53 PM on Friday 28 Nov 2014 (Local Time) from KFAT Reporting Station
Clear Clear  
Wind Chill: 12°   Ceiling: Unl
Heat Index: 12°   Visibility: 9mi
Dew Point:   Wind: 5mph
Humidity: 69%   Direction: 70°ENE
Pressure: 29.88"   Gusts: NA
Location:  36.81°N, 119.38°W
Report Text: KFAT 290653Z 07004KT 9SM CLR 12/06 A2988 RMK AO2 SLP116 T01170061
Loading
Personal Weather Stations






























Interactive Weather Map New forecast layout! Learn more

10-Day Weather Forecast

Advertisements
Track Severe Weather on mobile